createdAt,value
2023-08-28T08:06:35.069Z,1.77
2023-08-28T08:09:01.864Z,1.80
2023-08-28T08:11:28.619Z,1.70
2023-08-28T08:13:55.353Z,1.60
2023-08-28T08:16:22.335Z,1.70
2023-08-28T08:18:49.131Z,1.88
2023-08-28T08:21:15.876Z,1.40
2023-08-28T08:23:43.165Z,1.63
2023-08-28T08:26:10.075Z,1.70
2023-08-28T08:28:36.829Z,1.60
2023-08-28T08:31:03.608Z,1.40
2023-08-28T08:33:30.349Z,1.92
2023-08-28T08:35:57.107Z,1.90
2023-08-28T08:38:24.437Z,1.73
2023-08-28T08:40:53.445Z,2.28
2023-08-28T08:43:20.378Z,1.70
2023-08-28T08:45:51.346Z,2.25
2023-08-28T08:48:19.069Z,1.45
2023-08-28T08:50:48.502Z,1.50
2023-08-28T08:53:36.600Z,1.50
2023-08-28T08:56:05.446Z,1.27
2023-08-28T08:58:33.397Z,1.77
2023-08-28T09:01:00.814Z,1.50
2023-08-28T09:03:29.483Z,1.55
2023-08-28T09:05:56.966Z,1.25
2023-08-28T09:08:24.960Z,1.30
2023-08-28T09:10:52.282Z,1.02
2023-08-28T09:13:19.021Z,1.23
2023-08-28T09:16:04.253Z,1.75
2023-08-28T09:18:31.856Z,1.37
2023-08-28T09:21:09.057Z,1.30
2023-08-28T09:23:50.643Z,1.45
2023-08-28T09:26:21.041Z,1.30
2023-08-28T09:29:11.129Z,1.20
2023-08-28T09:31:39.908Z,1.55
2023-08-28T09:34:09.592Z,1.63
2023-08-28T09:36:44.054Z,1.40
2023-08-28T09:39:11.807Z,1.83
2023-08-28T09:41:44.824Z,1.50
2023-08-28T09:44:12.633Z,1.20
2023-08-28T09:46:39.631Z,1.75
2023-08-28T09:49:09.247Z,1.58
2023-08-28T09:51:43.640Z,1.50
2023-08-28T09:54:12.153Z,1.15
2023-08-28T09:56:39.952Z,1.33
2023-08-28T09:59:07.996Z,1.10
2023-08-28T10:01:36.881Z,1.23
2023-08-28T10:04:12.035Z,1.20
2023-08-28T10:06:49.503Z,1.17
2023-08-28T10:09:17.511Z,1.33
2023-08-28T10:11:44.601Z,1.27
2023-08-28T10:14:11.798Z,1.27
2023-08-28T10:16:44.861Z,1.30
2023-08-28T10:19:28.203Z,1.08
2023-08-28T10:21:55.905Z,1.60
2023-08-28T10:24:25.185Z,1.33
2023-08-28T10:26:52.779Z,1.30
2023-08-28T10:29:19.733Z,1.10
2023-08-28T10:31:47.466Z,1.10
2023-08-28T10:34:16.446Z,1.10
2023-08-28T10:39:16.431Z,1.42
2023-08-28T10:41:43.882Z,1.20
2023-08-28T10:44:11.125Z,1.40
2023-08-28T10:46:39.338Z,1.30
2023-08-28T10:49:06.760Z,1.30
2023-08-28T10:51:35.288Z,1.20
2023-08-28T10:54:06.434Z,1.30
2023-08-28T10:56:34.843Z,1.45
2023-08-28T10:59:20.267Z,1.50
2023-08-28T11:01:55.608Z,1.75
2023-08-28T11:04:24.212Z,1.20
2023-08-28T11:06:51.885Z,1.08
2023-08-28T11:09:27.734Z,0.95
2023-08-28T11:12:00.366Z,1.13
2023-08-28T11:14:51.631Z,1.10
2023-08-28T11:17:21.537Z,1.08
2023-08-28T11:19:53.590Z,1.38
2023-08-28T11:22:40.344Z,0.88
2023-08-28T11:25:11.380Z,1.13
2023-08-28T11:27:51.326Z,1.25
2023-08-28T11:30:20.533Z,1.10
2023-08-28T11:32:50.600Z,1.30
2023-08-28T11:35:17.935Z,1.40
2023-08-28T11:37:48.244Z,0.98
2023-08-28T11:40:22.702Z,1.25
2023-08-28T11:42:50.329Z,1.63
2023-08-28T11:45:26.737Z,1.02
2023-08-28T11:48:01.355Z,1.10
2023-08-28T11:50:28.891Z,1.15
2023-08-28T11:52:57.162Z,1.25
2023-08-28T11:55:27.764Z,0.90
2023-08-28T11:57:54.597Z,0.90
2023-08-28T12:00:22.669Z,1.10
2023-08-28T12:02:52.782Z,1.20
2023-08-28T12:05:19.763Z,1.15
2023-08-28T12:07:48.200Z,1.35
2023-08-28T12:10:18.172Z,1.30
2023-08-28T12:12:45.391Z,1.10
2023-08-28T12:15:12.592Z,1.50
2023-08-28T12:17:40.188Z,1.20
2023-08-28T12:20:17.279Z,1.00
2023-08-28T12:22:45.102Z,1.10
2023-08-28T12:25:11.952Z,1.30
2023-08-28T12:27:38.794Z,1.05
2023-08-28T12:30:07.548Z,1.10
2023-08-28T12:32:38.094Z,1.15
2023-08-28T12:35:12.385Z,1.10
2023-08-28T12:37:39.254Z,0.90
2023-08-28T12:40:11.589Z,0.90
2023-08-28T12:42:39.955Z,1.23
2023-08-28T12:45:07.477Z,1.08
2023-08-28T12:47:34.548Z,1.27
2023-08-28T12:50:01.727Z,1.40
2023-08-28T12:52:28.714Z,1.23
2023-08-28T12:54:55.569Z,0.85
2023-08-28T12:57:22.474Z,1.10
2023-08-28T12:59:49.288Z,1.33
2023-08-28T13:02:16.166Z,1.55
2023-08-28T13:04:42.987Z,1.02
2023-08-28T13:07:09.802Z,1.00
2023-08-28T13:09:36.660Z,0.73
2023-08-28T13:12:03.595Z,1.38
2023-08-28T13:14:30.385Z,1.23
2023-08-28T13:16:57.153Z,1.13
2023-08-28T13:19:24.638Z,1.20
2023-08-28T13:21:51.449Z,1.35
2023-08-28T13:24:21.250Z,1.38
2023-08-28T13:26:53.649Z,0.82
2023-08-28T13:29:20.418Z,1.10
2023-08-28T13:31:47.264Z,1.10
2023-08-28T13:34:14.216Z,1.27
2023-08-28T13:36:41.057Z,0.95
2023-08-28T13:39:10.906Z,1.60
2023-08-28T13:41:37.812Z,1.10
2023-08-28T13:44:05.447Z,1.27
2023-08-28T13:46:32.366Z,1.98
2023-08-28T13:48:59.435Z,1.50
2023-08-28T13:51:26.594Z,1.08
2023-08-28T13:53:53.585Z,1.40
2023-08-28T13:56:20.918Z,1.13
2023-08-28T13:58:49.115Z,1.20
2023-08-28T14:01:15.917Z,0.90
2023-08-28T14:03:42.790Z,1.10
2023-08-28T14:06:09.744Z,3.00
2023-08-28T14:08:36.671Z,1.67
2023-08-28T14:11:07.438Z,1.10
2023-08-28T14:13:35.396Z,1.10
2023-08-28T14:16:02.292Z,1.30
2023-08-28T14:18:29.157Z,0.98
2023-08-28T14:20:57.010Z,1.15
2023-08-28T14:23:24.283Z,0.90
2023-08-28T14:25:51.687Z,1.10
2023-08-28T14:28:22.071Z,1.25
2023-08-28T14:30:49.505Z,1.40
2023-08-28T14:33:16.349Z,1.85
2023-08-28T14:35:43.829Z,1.25
2023-08-28T14:38:10.565Z,1.10
2023-08-28T14:40:47.218Z,1.02
2023-08-28T14:43:14.907Z,1.45
2023-08-28T14:45:42.112Z,1.40
2023-08-28T14:48:09.230Z,0.93
2023-08-28T14:50:36.110Z,1.23
2023-08-28T14:53:03.506Z,1.20
2023-08-28T14:55:30.559Z,1.38
2023-08-28T14:57:57.298Z,1.17
2023-08-28T15:00:24.889Z,0.80
2023-08-28T15:02:51.729Z,1.23
2023-08-28T15:05:18.655Z,1.02
2023-08-28T15:07:45.445Z,1.17
2023-08-28T15:10:12.227Z,1.05
2023-08-28T15:12:39.062Z,1.45
2023-08-28T15:15:06.930Z,1.40
2023-08-28T15:17:33.738Z,1.00
2023-08-28T15:20:00.612Z,1.08
2023-08-28T15:22:28.703Z,1.45
2023-08-28T15:24:57.893Z,1.30
2023-08-28T15:27:24.656Z,1.27
2023-08-28T15:29:51.457Z,1.10
2023-08-28T15:32:18.205Z,0.88
2023-08-28T15:34:45.148Z,1.23
2023-08-28T15:37:15.923Z,1.15
2023-08-28T15:39:42.828Z,1.23
2023-08-28T15:42:09.586Z,1.30
2023-08-28T15:44:36.347Z,1.27
2023-08-28T15:47:03.200Z,1.00
2023-08-28T15:49:30.041Z,1.10
2023-08-28T15:51:56.958Z,1.10
2023-08-28T15:54:23.968Z,1.10
2023-08-28T15:56:50.730Z,1.23
2023-08-28T15:59:17.689Z,1.05
2023-08-28T16:01:44.579Z,1.00
2023-08-28T16:04:11.751Z,1.02
2023-08-28T16:06:39.040Z,1.55
2023-08-28T16:09:05.904Z,1.83
2023-08-28T16:11:32.841Z,1.77
2023-08-28T16:14:00.066Z,2.08
2023-08-28T16:16:26.974Z,1.60
2023-08-28T16:18:54.989Z,2.20
2023-08-28T16:21:21.847Z,1.77
2023-08-28T16:23:48.662Z,1.42
2023-08-28T16:26:15.447Z,2.28
2023-08-28T16:28:42.284Z,2.75
2023-08-28T16:31:12.359Z,1.92
2023-08-28T16:33:39.226Z,1.88
2023-08-28T16:36:06.265Z,1.80
2023-08-28T16:38:33.789Z,1.98
2023-08-28T16:41:00.550Z,1.50
2023-08-28T16:43:27.352Z,2.40
2023-08-28T16:45:54.832Z,1.48
2023-08-28T16:48:21.682Z,2.10
2023-08-28T16:50:48.488Z,1.60
2023-08-28T16:53:15.249Z,1.90
2023-08-28T16:55:42.018Z,2.20
2023-08-28T16:58:12.160Z,1.88
2023-08-28T17:00:39.062Z,2.47
2023-08-28T17:03:06.715Z,2.40
2023-08-28T17:05:34.165Z,2.13
2023-08-28T17:08:01.449Z,2.28
2023-08-28T17:10:28.896Z,1.98
2023-08-28T17:12:56.458Z,1.92
2023-08-28T17:15:23.340Z,2.08
2023-08-28T17:17:50.247Z,1.73
2023-08-28T17:20:17.172Z,2.00
2023-08-28T17:22:43.985Z,1.95
2023-08-28T17:25:10.896Z,1.80
2023-08-28T17:27:40.006Z,2.05
2023-08-28T17:30:07.799Z,2.40
2023-08-28T17:32:47.194Z,2.60
2023-08-28T17:35:14.189Z,2.50
2023-08-28T17:37:41.146Z,2.65
2023-08-28T17:40:08.793Z,2.10
2023-08-28T17:42:35.556Z,1.80
2023-08-28T17:45:02.299Z,2.35
2023-08-28T17:47:29.313Z,2.35
2023-08-28T17:49:56.116Z,2.53
2023-08-28T17:52:23.191Z,2.55
2023-08-28T17:54:50.285Z,2.88
2023-08-28T17:57:17.063Z,2.65
2023-08-28T17:59:43.796Z,2.95
2023-08-28T18:02:10.682Z,3.70
2023-08-28T18:04:39.769Z,2.83
2023-08-28T18:07:06.730Z,2.80
2023-08-28T18:09:33.570Z,2.20
2023-08-28T18:12:00.423Z,2.60
2023-08-28T18:14:27.315Z,2.88
2023-08-28T18:16:54.825Z,3.00
2023-08-28T18:19:21.738Z,2.88
2023-08-28T18:21:51.383Z,2.90
2023-08-28T18:24:18.523Z,2.30
2023-08-28T18:26:45.396Z,2.22
2023-08-28T18:29:12.379Z,2.20
2023-08-28T18:31:39.230Z,2.38
2023-08-28T18:34:06.041Z,2.50
2023-08-28T18:36:32.901Z,2.42
2023-08-28T18:38:59.983Z,2.92
2023-08-28T18:41:26.755Z,2.95
2023-08-28T18:43:53.591Z,2.90
2023-08-28T18:46:20.435Z,2.83
2023-08-28T18:48:47.212Z,2.75
2023-08-28T18:51:13.986Z,3.42
2023-08-28T18:53:42.864Z,3.22
2023-08-28T18:56:09.638Z,3.63
2023-08-28T18:58:36.475Z,3.20
2023-08-28T19:01:03.364Z,3.47
2023-08-28T19:03:30.221Z,3.40
2023-08-28T19:05:57.072Z,2.95
2023-08-28T19:08:24.808Z,2.95
2023-08-28T19:10:51.555Z,2.88
2023-08-28T19:13:18.348Z,3.08
2023-08-28T19:15:47.357Z,3.08
2023-08-28T19:18:14.241Z,3.17
2023-08-28T19:20:54.397Z,3.53
2023-08-28T19:23:26.826Z,3.50
2023-08-28T19:25:53.623Z,4.63
2023-08-28T19:28:20.454Z,4.03
2023-08-28T19:30:47.278Z,4.13
2023-08-28T19:33:14.045Z,3.70
2023-08-28T19:35:40.842Z,4.20
2023-08-28T19:38:07.941Z,2.85
2023-08-28T19:40:34.847Z,3.08
2023-08-28T19:43:01.629Z,2.53
2023-08-28T19:45:28.415Z,2.80
2023-08-28T19:47:55.374Z,3.10
2023-08-28T19:50:22.155Z,3.42
2023-08-28T19:52:48.987Z,3.45
2023-08-28T19:55:15.996Z,3.45
2023-08-28T19:57:42.771Z,3.70
2023-08-28T20:00:10.091Z,3.47
2023-08-28T20:02:37.080Z,3.13
2023-08-28T20:05:04.427Z,3.63
2023-08-28T20:07:31.217Z,3.00
2023-08-28T20:09:57.997Z,3.38
2023-08-28T20:12:24.733Z,3.30
2023-08-28T20:14:51.555Z,3.50
2023-08-28T20:17:18.330Z,3.45
2023-08-28T20:19:45.077Z,2.78
2023-08-28T20:22:11.891Z,3.08
2023-08-28T20:24:38.746Z,3.38
2023-08-28T20:27:05.780Z,2.85
2023-08-28T20:29:32.600Z,2.83
2023-08-28T20:32:00.109Z,2.67
2023-08-28T20:34:27.246Z,2.90
2023-08-28T20:36:54.785Z,3.22
2023-08-28T20:39:21.585Z,3.38
2023-08-28T20:41:48.361Z,3.60
2023-08-28T20:44:15.344Z,3.30
2023-08-28T20:46:42.259Z,3.60
2023-08-28T20:49:09.013Z,3.40
2023-08-28T20:51:35.844Z,3.92
2023-08-28T20:54:03.051Z,3.38
2023-08-28T20:56:30.780Z,3.70
2023-08-28T20:58:57.620Z,3.47
2023-08-28T21:01:24.690Z,3.90
2023-08-28T21:03:51.559Z,3.53
2023-08-28T21:06:18.389Z,3.78
2023-08-28T21:08:45.241Z,4.00
2023-08-28T21:11:12.027Z,3.88
2023-08-28T21:13:38.865Z,4.00
2023-08-28T21:16:05.785Z,3.60
2023-08-28T21:18:32.887Z,3.60
2023-08-28T21:21:02.894Z,3.35
2023-08-28T21:23:30.037Z,2.97
2023-08-28T21:26:01.370Z,3.35
2023-08-28T21:28:28.662Z,3.42
2023-08-28T21:31:09.060Z,3.97
2023-08-28T21:33:37.764Z,4.30
2023-08-28T21:36:05.262Z,5.28
2023-08-28T21:38:33.198Z,4.53
2023-08-28T21:40:59.975Z,5.28
2023-08-28T21:43:27.530Z,4.93
2023-08-28T21:46:02.510Z,4.63
2023-08-28T21:48:29.852Z,4.28
2023-08-28T21:50:56.630Z,4.88
2023-08-28T21:53:23.601Z,4.50
2023-08-28T21:55:54.466Z,4.70
2023-08-28T21:58:22.115Z,4.20
2023-08-28T22:00:49.538Z,4.28
2023-08-28T22:03:16.986Z,4.10
2023-08-28T22:05:44.500Z,4.43
2023-08-28T22:08:11.538Z,3.15
2023-08-28T22:10:48.833Z,3.60
2023-08-28T22:13:18.482Z,3.60
2023-08-28T22:15:48.492Z,3.28
2023-08-28T22:18:17.696Z,3.03
2023-08-28T22:20:44.662Z,3.83
2023-08-28T22:23:12.877Z,3.45
2023-08-28T22:25:44.278Z,4.15
2023-08-28T22:28:12.114Z,3.42
2023-08-28T22:30:39.615Z,3.10
2023-08-28T22:33:06.652Z,3.40
2023-08-28T22:35:33.549Z,3.15
2023-08-28T22:38:00.323Z,3.70
2023-08-28T22:40:27.179Z,3.45
2023-08-28T22:42:54.575Z,2.78
2023-08-28T22:45:21.569Z,3.50
2023-08-28T22:47:48.386Z,3.63
2023-08-28T22:50:15.208Z,3.85
2023-08-28T22:52:42.160Z,3.53
2023-08-28T22:55:09.637Z,4.20
2023-08-28T22:57:36.631Z,3.47
2023-08-28T23:00:05.088Z,3.65
2023-08-28T23:02:31.878Z,3.63
2023-08-28T23:04:58.683Z,3.50
2023-08-28T23:07:25.494Z,3.50
2023-08-28T23:09:52.238Z,3.03
2023-08-28T23:12:19.502Z,3.13
2023-08-28T23:14:46.303Z,3.22
2023-08-28T23:17:13.111Z,3.40
2023-08-28T23:19:40.680Z,3.38
2023-08-28T23:22:07.450Z,3.13
2023-08-28T23:24:34.221Z,3.28
2023-08-28T23:27:01.038Z,3.90
2023-08-28T23:29:27.802Z,4.35
2023-08-28T23:31:54.600Z,4.68
2023-08-28T23:34:21.421Z,4.43
2023-08-28T23:36:48.164Z,3.92
2023-08-28T23:39:14.898Z,5.03
2023-08-28T23:41:41.643Z,4.32
2023-08-28T23:44:08.337Z,4.28
2023-08-28T23:46:35.043Z,4.93
2023-08-28T23:49:01.862Z,4.30
2023-08-28T23:51:28.678Z,5.80
2023-08-28T23:53:55.443Z,5.03
2023-08-28T23:56:22.229Z,4.93
2023-08-28T23:58:48.954Z,4.78
